Palmer, Illinois
Current Conditions -  °F | °C
As of 5:15 AM on Monday 20 Oct 2014 (Local Time) from KTAZ Reporting Station
Scattered Clouds Scattered Clouds  
Wind Chill: 10°   Ceiling: Unl
Heat Index: 10°   Visibility: 10mi
Dew Point:   Wind: 8mph
Humidity: 82%   Direction: 220°SW
Pressure: 29.93"   Gusts: NA
Location:  39.46°N, 89.4°W
Report Text: KTAZ 201015Z AUTO 22007KT 10SM SCT085 10/07 A2993 RMK AO2
Loading
Personal Weather Stations






























Interactive Weather Map
Tropical Storm Tracking
New forecast layout! Learn more

10-Day Weather Forecast

Advertisements
Track Severe Weather on mobile